Terminal Aerodrome Forecast
Issued by NWS

Home | Current Version | Previous Version | Graphics & Text | Print | Product List | Glossary On
Versions: 1 2 3 4 5 6 7 8 9 10 11 12
684
FTUS43 KMPX 271120
TAFRNH
TAF
KRNH 271120Z 2712/2812 34008KT P6SM -SN SCT008 OVC015
     FM271700 30011G18KT P6SM OVC020
     FM280100 29006KT P6SM OVC025
     FM280700 27004KT P6SM SCT025=

USA.gov is the U.S. government's official web portal to all federal, state and local government web resources and services.